createdAt,value
2019-03-01T00:01:46.243Z,98905.78
2019-03-01T00:04:41.254Z,98900.20
2019-03-01T00:07:56.195Z,98899.59
2019-03-01T00:10:56.081Z,98895.33
2019-03-01T00:14:14.314Z,98893.83
2019-03-01T00:17:42.308Z,98894.77
2019-03-01T00:20:48.248Z,98886.25
2019-03-01T00:23:57.445Z,98884.48
2019-03-01T00:26:58.390Z,98884.55
2019-03-01T00:30:26.367Z,98885.48
2019-03-01T00:33:31.866Z,98884.27
2019-03-01T00:36:37.030Z,98880.76
2019-03-01T00:40:03.658Z,98868.18
2019-03-01T00:42:57.899Z,98865.95
2019-03-01T00:45:28.507Z,98876.05
2019-03-01T00:47:59.121Z,98872.53
2019-03-01T00:50:29.658Z,98881.28
2019-03-01T00:53:00.306Z,98878.59
2019-03-01T00:55:30.926Z,98875.59
2019-03-01T00:58:01.431Z,98881.30
2019-03-01T01:00:38.074Z,98883.44
2019-03-01T01:03:08.637Z,98877.83
2019-03-01T01:05:39.234Z,98869.94
2019-03-01T01:08:09.879Z,98869.09
2019-03-01T01:10:40.505Z,98873.08
2019-03-01T01:13:11.055Z,98869.72
2019-03-01T01:15:41.640Z,98860.38
2019-03-01T01:18:12.208Z,98858.36
2019-03-01T01:20:42.719Z,98853.38
2019-03-01T01:23:13.330Z,98858.49
2019-03-01T01:25:45.581Z,98856.99
2019-03-01T01:28:16.051Z,98860.87
2019-03-01T01:30:46.562Z,98853.88
2019-03-01T01:33:17.010Z,98850.53
2019-03-01T01:35:47.443Z,98850.53
2019-03-01T01:38:18.509Z,98852.45
2019-03-01T01:40:49.026Z,98853.31
2019-03-01T01:43:19.654Z,98849.14
2019-03-01T01:45:51.736Z,98854.25
2019-03-01T01:48:22.398Z,98838.38
2019-03-01T01:50:53.039Z,98843.20
2019-03-01T01:53:23.634Z,98839.88
2019-03-01T01:55:54.213Z,98836.01
2019-03-01T01:58:24.761Z,98841.45
2019-03-01T02:00:55.252Z,98838.14
2019-03-01T02:03:25.833Z,98836.44
2019-03-01T02:05:56.682Z,98832.83
2019-03-01T02:08:28.028Z,98827.92
2019-03-01T02:10:58.715Z,98818.81
2019-03-01T02:13:29.133Z,98812.84
2019-03-01T02:15:59.654Z,98811.98
2019-03-01T02:18:30.140Z,98807.73
2019-03-01T02:21:00.691Z,98794.95
2019-03-01T02:23:31.249Z,98791.11
2019-03-01T02:26:01.637Z,98790.63
2019-03-01T02:28:32.029Z,98780.98
2019-03-01T02:31:03.791Z,98780.56
2019-03-01T02:33:34.270Z,98787.06
2019-03-01T02:36:04.795Z,98785.89
2019-03-01T02:38:35.211Z,98791.96
2019-03-01T02:41:06.442Z,98789.41
2019-03-01T02:43:37.050Z,98790.14
2019-03-01T02:46:07.559Z,98790.50
2019-03-01T02:48:38.003Z,98793.23
2019-03-01T02:51:08.675Z,98788.28
2019-03-01T02:53:39.098Z,98785.61
2019-03-01T02:56:09.537Z,98793.77
2019-03-01T02:58:40.016Z,98791.34
2019-03-01T03:01:10.806Z,98789.98
2019-03-01T03:03:41.229Z,98793.48
2019-03-01T03:06:30.558Z,98793.20
2019-03-01T03:09:01.107Z,98793.91
2019-03-01T03:11:31.652Z,98795.53
2019-03-01T03:14:02.253Z,98804.09
2019-03-01T03:16:32.767Z,98803.79
2019-03-01T03:19:03.324Z,98805.73
2019-03-01T03:21:33.825Z,98812.61
2019-03-01T03:24:04.588Z,98806.60
2019-03-01T03:26:35.031Z,98800.36
2019-03-01T03:29:05.571Z,98809.34
2019-03-01T03:31:36.042Z,98807.02
2019-03-01T03:34:06.855Z,98804.37
2019-03-01T03:36:37.252Z,98804.53
2019-03-01T03:39:10.527Z,98796.16
2019-03-01T03:41:41.276Z,98791.86
2019-03-01T03:44:12.412Z,98793.42
2019-03-01T03:46:42.941Z,98794.00
2019-03-01T03:49:13.496Z,98790.34
2019-03-01T03:51:43.909Z,98788.83
2019-03-01T03:54:14.271Z,98790.84
2019-03-01T03:56:44.781Z,98781.17
2019-03-01T03:59:15.438Z,98781.70
2019-03-01T04:01:45.996Z,98780.55
2019-03-01T04:04:16.556Z,98788.84
2019-03-01T04:06:47.297Z,98789.21
2019-03-01T04:09:17.909Z,98783.60
2019-03-01T04:11:48.331Z,98785.41
2019-03-01T04:14:19.496Z,98787.56
2019-03-01T04:16:50.041Z,98779.68
2019-03-01T04:19:20.494Z,98778.78
2019-03-01T04:21:50.979Z,98776.00
2019-03-01T04:24:21.520Z,98777.41
2019-03-01T04:26:52.027Z,98775.89
2019-03-01T04:29:22.638Z,98775.35
2019-03-01T04:31:53.139Z,98779.43
2019-03-01T04:34:23.492Z,98783.53
2019-03-01T04:36:53.917Z,98784.03
2019-03-01T04:39:24.453Z,98782.86
2019-03-01T04:41:54.806Z,98780.70
2019-03-01T04:44:25.201Z,98776.48
2019-03-01T04:46:55.751Z,98782.19
2019-03-01T04:49:26.350Z,98780.91
2019-03-01T04:51:56.876Z,98781.16
2019-03-01T04:54:27.366Z,98792.50
2019-03-01T04:56:57.853Z,98793.77
2019-03-01T04:59:28.349Z,98789.70
2019-03-01T05:01:58.736Z,98786.88
2019-03-01T05:04:29.152Z,98784.80
2019-03-01T05:06:59.660Z,98766.33
2019-03-01T05:09:30.501Z,98768.83
2019-03-01T05:12:00.993Z,98765.03
2019-03-01T05:14:31.399Z,98759.40
2019-03-01T05:17:01.931Z,98761.16
2019-03-01T05:19:32.251Z,98763.95
2019-03-01T05:22:02.717Z,98759.06
2019-03-01T05:24:33.385Z,98763.35
2019-03-01T05:27:03.902Z,98766.88
2019-03-01T05:29:34.387Z,98766.16
2019-03-01T05:32:04.972Z,98761.55
2019-03-01T05:34:35.381Z,98758.47
2019-03-01T05:37:08.090Z,98760.91
2019-03-01T05:39:38.637Z,98763.95
2019-03-01T05:42:09.162Z,98761.73
2019-03-01T05:44:39.707Z,98760.23
2019-03-01T05:47:10.343Z,98768.95
2019-03-01T05:49:40.951Z,98772.93
2019-03-01T05:52:11.669Z,98767.45
2019-03-01T05:54:42.173Z,98766.36
2019-03-01T05:57:12.516Z,98766.09
2019-03-01T05:59:43.367Z,98774.81
2019-03-01T06:02:57.126Z,98771.35
2019-03-01T06:05:38.844Z,98772.09
2019-03-01T06:08:54.204Z,98772.06
2019-03-01T06:11:54.506Z,98772.21
2019-03-01T06:15:13.192Z,98782.44
2019-03-01T06:18:12.173Z,98774.40
2019-03-01T06:21:14.202Z,98782.17
2019-03-01T06:24:31.527Z,98778.34
2019-03-01T06:27:47.949Z,98773.45
2019-03-01T06:31:02.446Z,98758.16
2019-03-01T06:34:06.608Z,98768.22
2019-03-01T06:36:55.682Z,98764.41
2019-03-01T06:40:21.257Z,98772.17
2019-03-01T06:43:38.085Z,98771.96
2019-03-01T06:47:06.050Z,98770.84
2019-03-01T06:49:55.529Z,98772.75
2019-03-01T06:52:26.470Z,98771.55
2019-03-01T06:54:56.949Z,98771.48
2019-03-01T06:57:27.693Z,98768.29
2019-03-01T06:59:58.257Z,98776.23
2019-03-01T07:02:40.892Z,98789.08
2019-03-01T07:05:11.836Z,98786.19
2019-03-01T07:07:42.566Z,98779.73
2019-03-01T07:10:23.875Z,98784.39
2019-03-01T07:12:54.671Z,98781.55
2019-03-01T07:15:25.136Z,98778.62
2019-03-01T07:17:55.617Z,98776.86
2019-03-01T07:20:26.139Z,98780.64
2019-03-01T07:22:56.714Z,98776.69
2019-03-01T07:25:27.240Z,98777.88
2019-03-01T07:27:57.802Z,98766.22
2019-03-01T07:30:28.366Z,98782.84
2019-03-01T07:32:59.859Z,98785.65
2019-03-01T07:35:30.425Z,98776.28
2019-03-01T07:38:00.901Z,98775.06
2019-03-01T07:40:32.179Z,98772.61
2019-03-01T07:43:02.793Z,98781.13
2019-03-01T07:45:33.341Z,98777.69
2019-03-01T07:48:04.008Z,98781.30
2019-03-01T07:50:34.716Z,98777.02
2019-03-01T07:53:05.130Z,98788.70
2019-03-01T07:55:35.752Z,98786.81
2019-03-01T07:58:21.534Z,98794.88
2019-03-01T08:00:53.509Z,98795.12
2019-03-01T08:03:24.563Z,98793.90
2019-03-01T08:05:54.952Z,98790.98
2019-03-01T08:08:25.517Z,98786.81
2019-03-01T08:10:56.430Z,98785.86
2019-03-01T08:13:28.076Z,98793.27
2019-03-01T08:15:58.981Z,98797.60
2019-03-01T08:18:29.431Z,98801.90
2019-03-01T08:20:59.982Z,98807.73
2019-03-01T08:23:31.813Z,98807.06
2019-03-01T08:26:03.587Z,98807.36
2019-03-01T08:28:34.183Z,98809.75
2019-03-01T08:31:04.797Z,98815.58
2019-03-01T08:33:35.439Z,98808.20
2019-03-01T08:36:06.949Z,98808.13
2019-03-01T08:38:37.769Z,98805.78
2019-03-01T08:41:08.349Z,98802.34
2019-03-01T08:43:38.946Z,98796.19
2019-03-01T08:46:10.521Z,98803.75
2019-03-01T08:48:41.184Z,98800.23
2019-03-01T08:51:11.785Z,98796.03
2019-03-01T08:53:42.461Z,98788.58
2019-03-01T08:56:14.678Z,98789.49
2019-03-01T08:58:45.068Z,98781.15
2019-03-01T09:01:16.241Z,98776.19
2019-03-01T09:03:54.566Z,98777.16
2019-03-01T09:06:25.175Z,98773.08
2019-03-01T09:08:55.686Z,98768.27
2019-03-01T09:11:26.358Z,98761.62
2019-03-01T09:13:56.867Z,98760.25
2019-03-01T09:16:27.364Z,98761.53
2019-03-01T09:18:57.963Z,98766.02
2019-03-01T09:21:29.049Z,98767.31
2019-03-01T09:23:59.636Z,98772.17
2019-03-01T09:26:30.197Z,98763.81
2019-03-01T09:29:00.771Z,98772.28
2019-03-01T09:31:31.425Z,98767.39
2019-03-01T09:34:02.082Z,98763.57
2019-03-01T09:36:42.743Z,98762.96
2019-03-01T09:39:14.445Z,98758.53
2019-03-01T09:41:45.704Z,98751.58
2019-03-01T09:44:16.365Z,98756.33
2019-03-01T09:46:46.871Z,98745.25
2019-03-01T09:49:17.833Z,98753.96
2019-03-01T09:51:50.041Z,98757.35
2019-03-01T09:54:20.618Z,98747.66
2019-03-01T09:56:50.988Z,98748.56
2019-03-01T09:59:21.592Z,98748.31
2019-03-01T10:01:52.366Z,98750.34
2019-03-01T10:04:22.779Z,98748.44
2019-03-01T10:06:53.341Z,98754.62
2019-03-01T10:09:23.822Z,98756.26
2019-03-01T10:11:54.554Z,98754.50
2019-03-01T10:14:25.053Z,98759.24
2019-03-01T10:16:56.880Z,98752.41
2019-03-01T10:19:27.529Z,98744.94
2019-03-01T10:21:57.931Z,98742.95
2019-03-01T10:24:28.601Z,98742.56
2019-03-01T10:26:58.991Z,98741.57
2019-03-01T10:29:29.417Z,98738.52
2019-03-01T10:32:00.003Z,98734.06
2019-03-01T10:34:30.665Z,98728.84
2019-03-01T10:37:01.352Z,98728.97
2019-03-01T10:39:31.775Z,98720.99
2019-03-01T10:42:02.267Z,98719.70
2019-03-01T10:44:32.611Z,98723.22
2019-03-01T10:47:03.019Z,98733.55
2019-03-01T10:49:34.422Z,98738.72
2019-03-01T10:52:05.134Z,98738.39
2019-03-01T10:54:35.661Z,98747.19
2019-03-01T10:57:06.110Z,98753.16
2019-03-01T10:59:36.506Z,98746.89
2019-03-01T11:02:07.147Z,98750.20
2019-03-01T11:04:37.646Z,98748.38
2019-03-01T11:07:08.129Z,98752.66
2019-03-01T11:09:38.643Z,98744.83
2019-03-01T11:12:09.494Z,98739.86
2019-03-01T11:14:39.855Z,98744.33
2019-03-01T11:17:10.408Z,98743.69
2019-03-01T11:19:40.778Z,98738.38
2019-03-01T11:22:11.325Z,98743.41
2019-03-01T11:24:41.760Z,98751.29
2019-03-01T11:27:13.130Z,98746.03
2019-03-01T11:29:43.812Z,98747.20
2019-03-01T11:32:14.212Z,98761.00
2019-03-01T11:34:44.693Z,98753.88
2019-03-01T11:37:15.286Z,98755.83
2019-03-01T11:39:45.802Z,98757.63
2019-03-01T11:42:16.427Z,98764.13
2019-03-01T11:44:46.897Z,98755.44
2019-03-01T11:47:17.562Z,98754.36
2019-03-01T11:49:48.070Z,98751.87
2019-03-01T11:52:18.534Z,98755.97
2019-03-01T11:54:49.518Z,98749.77
2019-03-01T11:57:20.006Z,98746.53
2019-03-01T11:59:50.489Z,98749.91
2019-03-01T12:02:21.218Z,98751.59
2019-03-01T12:04:51.593Z,98742.25
2019-03-01T12:07:22.021Z,98742.59
2019-03-01T12:09:52.637Z,98742.08
2019-03-01T12:12:23.796Z,98745.73
2019-03-01T12:14:54.225Z,98741.40
2019-03-01T12:17:24.761Z,98747.20
2019-03-01T12:19:55.157Z,98745.81
2019-03-01T12:22:25.632Z,98750.52
2019-03-01T12:24:56.098Z,98744.62
2019-03-01T12:27:26.556Z,98749.11
2019-03-01T12:29:57.035Z,98741.08
2019-03-01T12:32:27.463Z,98739.28
2019-03-01T12:34:57.915Z,98739.00
2019-03-01T12:37:28.425Z,98736.25
2019-03-01T12:39:58.935Z,98729.64
2019-03-01T12:42:29.415Z,98735.11
2019-03-01T12:44:59.808Z,98737.09
2019-03-01T12:47:30.436Z,98731.34
2019-03-01T12:50:01.146Z,98730.24
2019-03-01T12:52:31.762Z,98722.73
2019-03-01T12:55:04.778Z,98726.57
2019-03-01T12:57:35.375Z,98719.36
2019-03-01T13:00:09.667Z,98729.72
2019-03-01T13:02:40.519Z,98725.50
2019-03-01T13:05:12.251Z,98726.77
2019-03-01T13:07:42.900Z,98724.29
2019-03-01T13:10:17.833Z,98731.08
2019-03-01T13:12:48.526Z,98728.91
2019-03-01T13:15:19.600Z,98729.23
2019-03-01T13:17:50.588Z,98731.20
2019-03-01T13:20:21.235Z,98741.22
2019-03-01T13:22:51.841Z,98737.22
2019-03-01T13:25:25.818Z,98729.95
2019-03-01T13:27:54.772Z,98730.25
2019-03-01T13:30:25.479Z,98737.28
2019-03-01T13:33:02.424Z,98734.09
2019-03-01T13:35:31.687Z,98731.34
2019-03-01T13:38:03.899Z,98732.93
2019-03-01T13:40:34.713Z,98733.89
2019-03-01T13:43:05.481Z,98723.02
2019-03-01T13:45:36.212Z,98715.07
2019-03-01T13:48:06.847Z,98713.33
2019-03-01T13:50:41.560Z,98731.09
2019-03-01T13:53:11.129Z,98730.80
2019-03-01T13:55:41.598Z,98726.16
2019-03-01T13:58:12.025Z,98730.00
2019-03-01T14:00:45.627Z,98722.13
2019-03-01T14:03:14.899Z,98724.92
2019-03-01T14:05:45.481Z,98726.97
2019-03-01T14:08:15.949Z,98734.72
2019-03-01T14:10:46.485Z,98739.80
2019-03-01T14:13:17.079Z,98729.97
2019-03-01T14:15:48.151Z,98738.38
2019-03-01T14:18:18.746Z,98741.19
2019-03-01T14:20:49.349Z,98742.66
2019-03-01T14:23:21.213Z,98749.31
2019-03-01T14:25:55.483Z,98752.03
2019-03-01T14:28:25.941Z,98756.14
2019-03-01T14:30:57.848Z,98758.45
2019-03-01T14:33:29.957Z,98762.00
2019-03-01T14:36:02.699Z,98760.80
2019-03-01T14:38:33.672Z,98761.59
2019-03-01T14:41:04.326Z,98768.05
2019-03-01T14:43:35.439Z,98772.95
2019-03-01T14:46:08.858Z,98768.80
2019-03-01T14:48:39.481Z,98779.09
2019-03-01T14:51:11.843Z,98768.11
2019-03-01T14:53:42.556Z,98766.22
2019-03-01T14:56:25.202Z,98772.80
2019-03-01T14:59:24.423Z,98769.75
2019-03-01T15:02:16.983Z,98768.03
2019-03-01T15:04:47.631Z,98768.80
2019-03-01T15:07:18.251Z,98769.46
2019-03-01T15:09:49.455Z,98771.80
2019-03-01T15:12:29.570Z,98774.50
2019-03-01T15:15:00.399Z,98772.17
2019-03-01T15:17:30.981Z,98770.35
2019-03-01T15:20:03.685Z,98780.55
2019-03-01T15:22:45.592Z,98780.07
2019-03-01T15:25:18.221Z,98786.11
2019-03-01T15:27:54.740Z,98787.13
2019-03-01T15:30:29.473Z,98785.12
2019-03-01T15:33:00.098Z,98790.78
2019-03-01T15:35:30.824Z,98794.72
2019-03-01T15:38:02.690Z,98798.55
2019-03-01T15:40:36.863Z,98792.84
2019-03-01T15:43:09.104Z,98808.83
2019-03-01T15:45:45.136Z,98805.75
2019-03-01T15:48:15.897Z,98814.71
2019-03-01T15:50:46.653Z,98815.59
2019-03-01T15:53:17.282Z,98817.45
2019-03-01T15:55:50.446Z,98819.02
2019-03-01T15:58:24.249Z,98826.75
2019-03-01T16:00:55.986Z,98834.72
2019-03-01T16:03:27.449Z,98840.94
2019-03-01T16:05:58.067Z,98839.00
2019-03-01T16:08:28.680Z,98841.52
2019-03-01T16:11:01.434Z,98848.31
2019-03-01T16:13:37.482Z,98849.66
2019-03-01T16:18:43.456Z,98850.70
2019-03-01T16:21:15.674Z,98848.21
2019-03-01T16:23:46.280Z,98851.67
2019-03-01T16:26:29.422Z,98852.53
2019-03-01T16:28:56.131Z,98863.84
2019-03-01T16:31:32.068Z,98871.05
2019-03-01T16:34:05.282Z,98880.17
2019-03-01T16:36:41.159Z,98886.35
2019-03-01T16:39:20.523Z,98886.40
2019-03-01T16:41:52.003Z,98886.63
2019-03-01T16:44:23.981Z,98888.86
2019-03-01T16:46:54.629Z,98889.98
2019-03-01T16:49:28.941Z,98894.20
2019-03-01T16:52:00.791Z,98895.66
2019-03-01T16:54:31.361Z,98899.55
2019-03-01T16:57:01.972Z,98902.84
2019-03-01T16:59:33.646Z,98907.59
2019-03-01T17:02:06.609Z,98914.84
2019-03-01T17:04:40.592Z,98916.71
2019-03-01T17:07:18.105Z,98919.65
2019-03-01T17:09:51.342Z,98930.05
2019-03-01T17:12:26.152Z,98932.54
2019-03-01T17:15:01.241Z,98947.95
2019-03-01T17:17:36.843Z,98942.91
2019-03-01T17:20:12.867Z,98943.97
2019-03-01T17:22:50.194Z,98940.14
2019-03-01T17:25:26.751Z,98936.45
2019-03-01T17:28:04.081Z,98941.45
2019-03-01T17:30:34.801Z,98956.80
2019-03-01T17:33:05.384Z,98949.50
2019-03-01T17:35:41.854Z,98947.06
2019-03-01T17:38:13.655Z,98954.47
2019-03-01T17:40:45.161Z,98955.38
2019-03-01T17:43:18.745Z,98954.59
2019-03-01T17:45:54.481Z,98961.88
2019-03-01T17:48:25.216Z,98960.27
2019-03-01T17:51:00.443Z,98963.69
2019-03-01T17:53:32.528Z,98969.25
2019-03-01T17:56:12.231Z,98971.17
2019-03-01T17:58:42.792Z,98975.39
2019-03-01T18:01:16.742Z,98975.23
2019-03-01T18:03:49.870Z,98973.70
2019-03-01T18:06:40.240Z,98981.26
2019-03-01T18:09:13.449Z,98983.20
2019-03-01T18:11:48.585Z,98981.44
2019-03-01T18:14:20.301Z,98981.96
2019-03-01T18:16:50.918Z,98981.21
2019-03-01T18:19:27.795Z,98984.78
2019-03-01T18:21:59.911Z,98983.95
2019-03-01T18:24:34.225Z,99004.58
2019-03-01T18:27:17.858Z,99009.41
2019-03-01T18:29:49.783Z,99005.45
2019-03-01T18:32:26.321Z,99011.55
2019-03-01T18:35:02.583Z,99008.16
2019-03-01T18:37:39.431Z,99012.99
2019-03-01T18:40:16.549Z,99020.45
2019-03-01T18:42:51.932Z,99024.67
2019-03-01T18:45:27.388Z,99026.73
2019-03-01T18:48:04.986Z,99034.63
2019-03-01T18:50:43.267Z,99043.35
2019-03-01T18:53:20.007Z,99049.20
2019-03-01T18:55:58.544Z,99056.11
2019-03-01T18:58:31.425Z,99062.77
2019-03-01T19:01:07.721Z,99072.25
2019-03-01T19:03:44.434Z,99079.77
2019-03-01T19:06:19.597Z,99077.09
2019-03-01T19:08:52.268Z,99078.98
2019-03-01T19:11:23.290Z,99090.64
2019-03-01T19:13:55.265Z,99091.75
2019-03-01T19:16:28.588Z,99095.70
2019-03-01T19:19:04.845Z,99099.90
2019-03-01T19:21:39.001Z,99107.30
2019-03-01T19:24:13.925Z,99106.92
2019-03-01T19:26:54.544Z,99113.66
2019-03-01T19:29:27.708Z,99117.47
2019-03-01T19:32:05.887Z,99120.62
2019-03-01T19:34:38.861Z,99122.56
2019-03-01T19:37:13.347Z,99135.20
2019-03-01T19:39:41.922Z,99137.98
2019-03-01T19:42:18.621Z,99145.09
2019-03-01T19:45:04.674Z,99146.34
2019-03-01T19:47:39.317Z,99152.83
2019-03-01T19:50:21.838Z,99156.88
2019-03-01T19:52:57.856Z,99156.51
2019-03-01T19:55:33.736Z,99161.29
2019-03-01T19:58:08.697Z,99164.14
2019-03-01T20:00:42.231Z,99164.11
2019-03-01T20:03:13.842Z,99172.28
2019-03-01T20:05:47.962Z,99172.25
2019-03-01T20:08:18.856Z,99176.70
2019-03-01T20:10:51.028Z,99190.48
2019-03-01T20:13:27.216Z,99187.20
2019-03-01T20:15:59.265Z,99193.05
2019-03-01T20:18:35.776Z,99190.16
2019-03-01T20:21:10.557Z,99191.98
2019-03-01T20:23:46.132Z,99192.68
2019-03-01T20:26:19.511Z,99196.22
2019-03-01T20:28:52.451Z,99194.22
2019-03-01T20:31:27.311Z,99196.69
2019-03-01T20:34:01.943Z,99196.09
2019-03-01T20:36:44.460Z,99198.94
2019-03-01T20:39:25.614Z,99206.71
2019-03-01T20:41:58.447Z,99203.94
2019-03-01T20:44:36.336Z,99205.77
2019-03-01T20:47:10.366Z,99199.99
2019-03-01T20:49:54.979Z,99200.27
2019-03-01T20:52:27.866Z,99213.58
2019-03-01T20:55:01.628Z,99208.72
2019-03-01T20:57:33.756Z,99213.45
2019-03-01T21:00:08.203Z,99214.76
2019-03-01T21:02:42.179Z,99214.53
2019-03-01T21:05:18.071Z,99215.72
2019-03-01T21:07:53.758Z,99218.31
2019-03-01T21:10:23.806Z,99223.17
2019-03-01T21:13:12.536Z,99227.75
2019-03-01T21:15:41.875Z,99227.02
2019-03-01T21:18:13.658Z,99226.20
2019-03-01T21:20:45.524Z,99231.72
2019-03-01T21:23:18.235Z,99238.52
2019-03-01T21:25:51.296Z,99238.69
2019-03-01T21:28:25.391Z,99252.29
2019-03-01T21:30:59.946Z,99257.55
2019-03-01T21:33:31.052Z,99252.76
2019-03-01T21:36:01.612Z,99255.16
2019-03-01T21:38:32.157Z,99250.91
2019-03-01T21:41:06.327Z,99253.73
2019-03-01T21:43:38.443Z,99251.33
2019-03-01T21:46:09.121Z,99252.67
2019-03-01T21:48:42.643Z,99260.58
2019-03-01T21:51:19.883Z,99252.97
2019-03-01T21:53:50.595Z,99255.98
2019-03-01T21:56:24.248Z,99254.79
2019-03-01T21:58:54.811Z,99258.96
2019-03-01T22:01:25.292Z,99258.12
2019-03-01T22:03:55.929Z,99259.80
2019-03-01T22:06:26.435Z,99262.05
2019-03-01T22:08:57.230Z,99263.53
2019-03-01T22:11:27.793Z,99268.54
2019-03-01T22:13:58.770Z,99265.23
2019-03-01T22:16:32.711Z,99274.12
2019-03-01T22:19:01.791Z,99268.25
2019-03-01T22:21:32.361Z,99261.87
2019-03-01T22:24:03.007Z,99270.83
2019-03-01T22:26:35.230Z,99265.02
2019-03-01T22:29:08.878Z,99277.11
2019-03-01T22:31:39.655Z,99271.45
2019-03-01T22:34:10.336Z,99266.80
2019-03-01T22:36:40.771Z,99273.62
2019-03-01T22:39:13.651Z,99271.44
2019-03-01T22:41:44.525Z,99276.08
2019-03-01T22:44:15.287Z,99278.25
2019-03-01T22:46:45.915Z,99276.28
2019-03-01T22:49:16.595Z,99283.24
2019-03-01T22:52:05.127Z,99279.05
2019-03-01T22:54:50.617Z,99281.11
2019-03-01T22:57:45.116Z,99282.38
2019-03-01T23:01:20.596Z,99288.45
2019-03-01T23:04:10.763Z,99286.82
2019-03-01T23:06:57.216Z,99292.27
2019-03-01T23:09:46.166Z,99293.26
2019-03-01T23:12:31.163Z,99300.82
2019-03-01T23:15:19.317Z,99305.58
2019-03-01T23:18:06.500Z,99303.66
2019-03-01T23:20:53.001Z,99309.33
2019-03-01T23:23:24.849Z,99311.30
2019-03-01T23:25:55.678Z,99315.04
2019-03-01T23:28:27.727Z,99315.98
2019-03-01T23:31:00.521Z,99317.58
2019-03-01T23:33:33.421Z,99319.51
2019-03-01T23:36:05.122Z,99322.66
2019-03-01T23:38:37.443Z,99324.16
2019-03-01T23:41:11.413Z,99320.41
2019-03-01T23:43:43.626Z,99320.11
2019-03-01T23:46:15.438Z,99323.98
2019-03-01T23:48:48.915Z,99324.42
2019-03-01T23:51:21.295Z,99324.28
2019-03-01T23:53:53.501Z,99326.17
2019-03-01T23:56:26.806Z,99322.94
2019-03-01T23:58:59.469Z,99322.33
